Saint Joseph, MO (64507)

3:33 PM CDT on March 30, 2017 (GMT -0500)
KMOSTJOS3 | | Change Station
Active Advisory: Flood Warning

Elev 965 ft 39.77 °N, 94.82 °W | Updated 32 seconds ago

Overcast
Overcast
47.3 °F
Feels Like 47 °F
N
3.1
Wind Variable Wind from SSE
Gusts 3.6 mph

Today
High -- | Low -- °F
--% Chance of Precip.
Yesterday
High -- | Low -- °F
Precip. -- in
Pressure 29.62 in
Visibility 9.0 miles
Clouds Overcast 900 ft
Windchill 47 °F
Dew Point 43 °F
Humidity 86%
Rainfall 0.00 in
Snow Depth Not available.
7:06 AM 7:41 PM
Waxing Crescent, 10% visible
METAR KSTJ 301953Z 35013KT 9SM OVC009 08/08 A2962 RMK AO2 SLP031 T00830078
Pressure 29.62 in
Visibility 9.0 miles
Clouds Overcast 900 ft
Windchill 47 °F
Dew Point 43 °F
Humidity 86%
Rainfall 0.00 in
Snow Depth Not available.
7:06 AM 7:41 PM
Waxing Crescent, 10% visible
METAR KSTJ 301953Z 35013KT 9SM OVC009 08/08 A2962 RMK AO2 SLP031 T00830078

Get Your Daily Forecast Email!

Thanks for signing up!

Be on the lookout for a verification email in your inbox.

You'll start receiving severe weather alerts in your inbox..

×

10-Day Weather Forecast

Almanac

Astronomy

Mar. 30, 2017 Rise Set
Actual Time
Civil Twilight
Nautical Twilight
Astronomical Twilight
Moon
Length of Visible Light
Length of Day
Tomorrow will be .
, % of the Moon is Illuminated

Today's Extremes

State Highs State Lows

Community

WunderPhotos

Upload Photos

1,962,540 photos uploaded!

WunderBlog® & News

Nearby

Air Quality

  Air Quality AQ Index Pollutant
Not available.

Snow Depth

Station Depth Elevation

Earthquake Activity

City Distance Mag. Time & Date
Minimum magnitude displayed is 2.5.

Earthquake Activity

City Distance Mag. Time & Date
Minimum magnitude displayed is 2.5.

Coastal Water Temperatures

Place Temperature

Stations

Nearby Weather Stations

Station Location Temp. Windchill Dew Point Humidity Wind Precip. Elev Updated Type
                   

Watches & Warnings

Flood Warning
Issued: 1:53 PM CDT Mar. 30, 2017 – National Weather Service

The National Weather Service in Pleasant Hill MO has issued a

* Flood Warning for
the Platte River near agency.
* Until Saturday morning.
* At 1:30 PM Thursday the stage was 19.8 feet.
* Flood stage is 20.0 feet.
* Minor flooding is forecast.
* Forecast... rise above flood stage by late this afternoon and
continue to rise to near 20.6 feet by early Friday morning. The
river will fall below flood stage by Friday morning.
* At 20.0 feet... low-lying areas east of agency begin to flood.

                       Latest
location fs stage day/time forecast

Platte River
agency 20 19.8 Thu 01 PM 20.6 early Friday morning


lat... Lon 3977 9480 3977 9471 3951 9464 3941 9464 3941 9472